Time;durP1;ratioP1;P1;durP2;ratioP2;P2;SDS_P1;SDS_P2;PMS_P1;PMS_P2;Temp;Humidity;BMP_temperature;BMP_pressure;BME280_temperature;BME280_humidity;BME280_pressure;Samples;Min_cycle;Max_cycle;Signal;HPM_P1;HPM_P2
2022/06/06 00:00:02;;;;;;;;;;;;;;;21.66;66.49;100613.22;5042908;28;20332;-86
2022/06/06 00:02:28;;;;;;;;;;;;;;;21.72;66.34;100615.00;5014967;28;19940;-88
2022/06/06 00:04:56;;;;;;;;;;;;;;;21.77;66.12;100627.97;5022111;28;20305;-87
2022/06/06 00:07:25;;;;;;;;;;;;;;;21.81;65.85;100631.91;5017406;28;19929;-87
2022/06/06 00:09:51;;;;;;;;;;;;;;;21.81;64.74;100640.97;5030256;28;19916;-88
2022/06/06 00:12:17;;;;;;;;;;;;;;;21.90;64.28;100649.66;5036287;28;20301;-87
2022/06/06 00:14:50;;;;;;;;;;;;;;;21.82;64.63;100647.25;5015775;28;19928;-89
2022/06/06 00:17:16;;;;;;;;;;;;;;;21.91;64.85;100640.38;5041424;28;19916;-88
2022/06/06 00:19:41;;;;;;;;;;;;;;;21.77;65.12;100623.34;5040128;28;20365;-88
2022/06/06 00:22:09;;;;;;;;;;;;;;;21.80;65.17;100619.31;5008731;28;19924;-85
2022/06/06 00:24:37;;;;;;;;;;;;;;;21.57;65.82;100620.13;5045418;28;19916;-88
2022/06/06 00:27:04;;;;;;;;;;;;;;;21.60;65.80;100625.94;5023814;28;20011;-88
2022/06/06 00:29:35;;;;;;;;;;;;;;;21.35;66.67;100620.59;5029523;28;19925;-88
2022/06/06 00:34:54;;;;;;;;;;;;;;;21.08;67.69;100595.56;5045094;28;19923;-88
2022/06/06 00:37:20;;;;;;;;;;;;;;;21.10;67.45;100601.63;5044298;28;19913;-88
2022/06/06 00:39:46;;;;;;;;;;;;;;;21.01;67.77;100612.03;5026564;28;19917;-88
2022/06/06 00:42:30;;;;;;;;;;;;;;;20.91;68.29;100598.09;5038817;28;19947;-87
2022/06/06 00:45:15;;;;;;;;;;;;;;;20.71;68.54;100584.69;5032201;28;20445;-87
2022/06/06 00:47:41;;;;;;;;;;;;;;;20.66;68.94;100585.38;5044153;28;19970;-85
2022/06/06 00:50:09;;;;;;;;;;;;;;;20.90;67.99;100573.75;5017007;28;19917;-88
2022/06/06 00:52:35;;;;;;;;;;;;;;;20.90;68.24;100563.63;5016782;28;19948;-89
2022/06/06 00:55:05;;;;;;;;;;;;;;;20.78;68.12;100555.38;5020560;28;19920;-88
2022/06/06 00:57:31;;;;;;;;;;;;;;;20.82;68.25;100539.38;5037714;28;19924;-89
2022/06/06 00:59:59;;;;;;;;;;;;;;;20.58;69.00;100525.63;5019252;28;19921;-88
2022/06/06 01:02:33;;;;;;;;;;;;;;;20.64;68.66;100524.69;5039699;28;19921;-88
2022/06/06 01:05:01;;;;;;;;;;;;;;;20.42;69.84;100524.31;5008970;28;19997;-89
2022/06/06 01:07:26;;;;;;;;;;;;;;;20.35;70.21;100539.94;5031633;28;19939;-84
2022/06/06 01:09:52;;;;;;;;;;;;;;;20.54;69.70;100539.94;5039555;28;19920;-85
2022/06/06 01:12:17;;;;;;;;;;;;;;;20.51;69.70;100546.69;5062997;28;19927;-85
2022/06/06 01:14:55;;;;;;;;;;;;;;;20.57;69.46;100542.22;5038097;28;19917;-86
2022/06/06 01:17:46;;;;;;;;;;;;;;;20.67;69.37;100547.97;5040487;28;19913;-88
2022/06/06 01:20:13;;;;;;;;;;;;;;;20.61;69.42;100551.63;5013984;28;19956;-86
2022/06/06 01:22:46;;;;;;;;;;;;;;;20.78;68.96;100560.84;5040080;28;19913;-87
2022/06/06 01:25:11;;;;;;;;;;;;;;;20.78;68.83;100552.66;5049577;28;19923;-87
2022/06/06 01:27:42;;;;;;;;;;;;;;;20.91;68.71;100546.19;5039398;28;20011;-87
2022/06/06 01:30:13;;;;;;;;;;;;;;;20.97;67.82;100547.16;5023879;28;19971;-86
2022/06/06 01:32:44;;;;;;;;;;;;;;;21.04;67.64;100553.34;5035493;28;19916;-87
2022/06/06 01:35:09;;;;;;;;;;;;;;;20.99;67.22;100542.28;5040266;28;19963;-87
2022/06/06 01:37:36;;;;;;;;;;;;;;;21.04;67.38;100554.19;5044391;28;19921;-87
2022/06/06 01:40:04;;;;;;;;;;;;;;;21.05;67.17;100568.69;5021164;28;20015;-85
2022/06/06 01:43:02;;;;;;;;;;;;;;;20.84;67.64;100570.88;5024774;28;19921;-86
2022/06/06 01:45:33;;;;;;;;;;;;;;;20.68;68.48;100582.44;5021024;28;19914;-84
2022/06/06 01:48:07;;;;;;;;;;;;;;;20.52;69.16;100585.75;5022097;28;19967;-86
2022/06/06 01:50:35;;;;;;;;;;;;;;;20.64;68.94;100597.59;5043046;28;19939;-87
2022/06/06 01:53:03;;;;;;;;;;;;;;;20.66;68.91;100600.94;5032435;28;19917;-86
2022/06/06 01:55:30;;;;;;;;;;;;;;;20.74;68.75;100599.78;5023757;28;19923;-87
2022/06/06 01:57:57;;;;;;;;;;;;;;;20.73;68.56;100585.31;5033039;28;19951;-87
2022/06/06 02:00:22;;;;;;;;;;;;;;;20.61;69.17;100581.69;5025897;28;19921;-84
2022/06/06 02:02:48;;;;;;;;;;;;;;;20.67;69.04;100580.75;5041458;28;19905;-87
2022/06/06 02:05:15;;;;;;;;;;;;;;;20.40;69.95;100564.66;5023181;28;19917;-88
2022/06/06 02:07:40;;;;;;;;;;;;;;;20.44;70.18;100571.34;5043749;28;19954;-88
2022/06/06 02:10:11;;;;;;;;;;;;;;;20.40;70.22;100566.56;5044634;28;19921;-88
2022/06/06 02:12:37;;;;;;;;;;;;;;;20.42;70.38;100578.09;5024662;28;19908;-86
2022/06/06 02:15:03;;;;;;;;;;;;;;;20.33;70.35;100591.22;5024730;28;20270;-86
2022/06/06 02:17:28;;;;;;;;;;;;;;;20.25;70.91;100583.31;5027493;28;20339;-86
2022/06/06 02:19:53;;;;;;;;;;;;;;;20.26;70.69;100586.91;5021521;28;19912;-86
2022/06/06 02:22:19;;;;;;;;;;;;;;;20.28;70.41;100593.78;5017378;28;19924;-88
2022/06/06 02:24:44;;;;;;;;;;;;;;;20.21;70.71;100601.22;5033975;28;19960;-88
2022/06/06 02:27:10;;;;;;;;;;;;;;;20.20;70.68;100594.06;5018129;28;19921;-87
2022/06/06 02:29:36;;;;;;;;;;;;;;;20.39;70.29;100598.50;5023537;28;19917;-87
2022/06/06 02:32:01;;;;;;;;;;;;;;;20.38;70.34;100607.75;5008209;28;19919;-88
2022/06/06 02:34:29;;;;;;;;;;;;;;;20.51;69.92;100598.59;5011578;28;19944;-87
2022/06/06 02:36:56;;;;;;;;;;;;;;;20.43;70.18;100613.34;5031827;28;19901;-84
2022/06/06 02:39:21;;;;;;;;;;;;;;;20.50;70.18;100612.44;5031685;28;19917;-87
2022/06/06 02:41:47;;;;;;;;;;;;;;;20.57;69.96;100603.16;5017425;28;19920;-87
2022/06/06 02:44:12;;;;;;;;;;;;;;;20.71;70.40;100595.63;5021695;28;19928;-86
2022/06/06 02:46:38;;;;;;;;;;;;;;;20.54;70.92;100597.28;5019770;28;20012;-85
2022/06/06 02:49:08;;;;;;;;;;;;;;;20.48;70.94;100590.00;5028545;28;19917;-84
2022/06/06 02:51:34;;;;;;;;;;;;;;;20.48;71.18;100592.72;5022682;28;19964;-87
2022/06/06 02:54:00;;;;;;;;;;;;;;;20.44;71.22;100606.84;5002598;28;19917;-87
2022/06/06 02:56:27;;;;;;;;;;;;;;;20.54;71.05;100597.28;5004182;28;19909;-87
2022/06/06 02:58:57;;;;;;;;;;;;;;;20.25;71.51;100599.69;5034460;28;19912;-84
2022/06/06 03:01:22;;;;;;;;;;;;;;;20.33;71.53;100591.22;5015272;28;19922;-86
2022/06/06 03:03:47;;;;;;;;;;;;;;;20.10;71.02;100580.13;5010386;28;19913;-86
2022/06/06 03:06:20;;;;;;;;;;;;;;;20.26;70.83;100573.25;5044667;28;19912;-87
2022/06/06 03:08:57;;;;;;;;;;;;;;;20.21;69.71;100573.94;5025887;28;19920;-87
2022/06/06 03:11:41;;;;;;;;;;;;;;;20.35;67.57;100571.88;5012608;28;19952;-84
2022/06/06 03:14:26;;;;;;;;;;;;;;;20.42;67.61;100575.38;5014421;28;20388;-86
2022/06/06 03:22:44;;;;;;;;;;;;;;;19.99;65.54;100558.00;5002826;28;20396;-86
2022/06/06 03:25:14;;;;;;;;;;;;;;;19.87;66.14;100559.78;5016958;28;19924;-85
2022/06/06 03:27:43;;;;;;;;;;;;;;;19.87;65.57;100580.78;4992918;28;20181;-86
2022/06/06 03:30:26;;;;;;;;;;;;;;;19.88;65.56;100588.75;5003853;28;20279;-85
2022/06/06 03:33:12;;;;;;;;;;;;;;;19.70;66.41;100594.16;5011407;28;19924;-84
2022/06/06 03:35:44;;;;;;;;;;;;;;;19.86;65.87;100609.94;5007251;28;20344;-86
2022/06/06 03:38:12;;;;;;;;;;;;;;;20.00;65.19;100600.56;5013964;28;19917;-83
2022/06/06 03:40:43;;;;;;;;;;;;;;;20.14;64.99;100597.72;5013421;28;19922;-85
2022/06/06 03:43:08;;;;;;;;;;;;;;;20.26;64.95;100611.47;4997780;28;19913;-85
2022/06/06 03:45:52;;;;;;;;;;;;;;;20.36;63.99;100617.22;5003217;28;20402;-85
2022/06/06 03:48:36;;;;;;;;;;;;;;;20.38;63.53;100607.75;5004762;28;19922;-86
2022/06/06 03:51:01;;;;;;;;;;;;;;;20.43;63.52;100620.72;5009967;28;19967;-85
2022/06/06 03:53:48;;;;;;;;;;;;;;;20.31;63.62;100615.16;4997003;28;19917;-87
2022/06/06 03:56:19;;;;;;;;;;;;;;;20.43;63.08;100626.19;5008145;28;19921;-85
2022/06/06 03:58:45;;;;;;;;;;;;;;;20.44;62.83;100636.06;5005006;28;19918;-85
2022/06/06 04:01:13;;;;;;;;;;;;;;;20.30;63.53;100651.72;5006698;28;19996;-87
2022/06/06 04:03:38;;;;;;;;;;;;;;;20.09;64.20;100682.16;4979429;28;19914;-87
2022/06/06 04:06:04;;;;;;;;;;;;;;;20.29;63.44;100731.13;5003977;28;19917;-84
2022/06/06 04:08:32;;;;;;;;;;;;;;;20.18;63.61;100759.97;4993181;28;20329;-87
2022/06/06 04:10:57;;;;;;;;;;;;;;;20.06;64.04;100769.94;4997409;28;19918;-86
2022/06/06 04:13:41;;;;;;;;;;;;;;;20.16;63.89;100764.84;5004577;28;19927;-85
2022/06/06 04:16:23;;;;;;;;;;;;;;;20.00;63.59;100766.19;5010661;28;20405;-86
2022/06/06 04:19:08;;;;;;;;;;;;;;;19.85;62.91;100758.31;4992743;28;19924;-85
2022/06/06 04:21:53;;;;;;;;;;;;;;;19.64;63.55;100744.97;4994600;28;19917;-87
2022/06/06 04:24:27;;;;;;;;;;;;;;;19.47;65.35;100750.94;5001172;28;19921;-84
2022/06/06 04:27:10;;;;;;;;;;;;;;;19.32;67.34;100755.84;5031394;28;19935;-89
2022/06/06 04:29:43;;;;;;;;;;;;;;;19.01;68.88;100762.03;5023320;28;19917;-84
2022/06/06 04:32:10;;;;;;;;;;;;;;;18.74;70.26;100754.72;5043569;28;19939;-91
2022/06/06 04:34:56;;;;;;;;;;;;;;;18.53;70.92;100738.63;5027196;28;19921;-91
2022/06/06 04:37:49;;;;;;;;;;;;;;;18.22;71.95;100742.03;5034644;28;19913;-88
2022/06/06 04:40:17;;;;;;;;;;;;;;;17.91;72.82;100746.16;5023463;28;19908;-90
2022/06/06 04:42:55;;;;;;;;;;;;;;;17.68;74.03;100741.09;5051919;28;19925;-92
2022/06/06 04:45:29;;;;;;;;;;;;;;;17.56;74.97;100726.41;5044133;28;19980;-94
2022/06/06 04:47:57;;;;;;;;;;;;;;;17.39;75.51;100709.63;5045342;28;19952;-92
2022/06/06 04:50:23;;;;;;;;;;;;;;;17.27;73.79;100720.25;5101164;23;19925;-90
2022/06/06 04:52:49;;;;;;;;;;;;;;;17.16;74.27;100716.25;4998304;28;20056;-85
2022/06/06 04:55:14;;;;;;;;;;;;;;;17.09;75.11;100732.53;4976180;28;19909;-86
2022/06/06 04:57:43;;;;;;;;;;;;;;;17.09;74.06;100737.97;4993177;28;19914;-86
2022/06/06 05:00:09;;;;;;;;;;;;;;;17.03;74.90;100752.34;4996877;28;19918;-87
2022/06/06 05:02:37;;;;;;;;;;;;;;;17.05;74.94;100736.69;4992702;28;19914;-86
2022/06/06 05:05:10;;;;;;;;;;;;;;;16.98;75.37;100738.53;4997137;28;19981;-87
2022/06/06 05:07:37;;;;;;;;;;;;;;;17.03;76.35;100725.16;4990752;28;19921;-86
2022/06/06 05:10:21;;;;;;;;;;;;;;;17.11;73.63;100710.56;4996322;28;19921;-86
2022/06/06 05:13:10;;;;;;;;;;;;;;;17.14;74.05;100703.91;4991021;28;19968;-85
2022/06/06 05:15:54;;;;;;;;;;;;;;;17.21;73.73;100683.06;4995258;28;19973;-83
2022/06/06 05:18:30;;;;;;;;;;;;;;;17.25;74.74;100666.09;5006604;28;19925;-85
2022/06/06 05:21:17;;;;;;;;;;;;;;;17.28;74.18;100654.84;5000586;28;20421;-87
2022/06/06 05:23:47;;;;;;;;;;;;;;;17.34;73.90;100663.22;4991575;28;19985;-86
2022/06/06 05:26:26;;;;;;;;;;;;;;;17.43;74.22;100679.13;4990411;28;20354;-85
2022/06/06 05:28:58;;;;;;;;;;;;;;;17.47;73.50;100680.41;4998152;28;20371;-86
2022/06/06 05:31:27;;;;;;;;;;;;;;;17.45;73.64;100681.66;5002757;28;20261;-85
2022/06/06 05:34:22;;;;;;;;;;;;;;;17.61;73.93;100696.75;4991641;28;19918;-87
2022/06/06 05:37:07;;;;;;;;;;;;;;;17.62;73.86;100692.97;4992253;28;20520;-84
2022/06/06 05:39:38;;;;;;;;;;;;;;;17.84;73.54;100678.19;4988414;28;19913;-88
2022/06/06 05:42:22;;;;;;;;;;;;;;;17.87;71.32;100688.63;4998537;28;19918;-85
2022/06/06 05:45:10;;;;;;;;;;;;;;;18.08;71.88;100693.03;4997741;28;19914;-83
2022/06/06 05:47:40;;;;;;;;;;;;;;;18.46;72.20;100696.97;4986598;28;19957;-84
2022/06/06 05:50:25;;;;;;;;;;;;;;;18.55;68.43;100688.38;4983145;28;19958;-83
2022/06/06 05:53:00;;;;;;;;;;;;;;;18.55;68.25;100698.44;4981166;28;19977;-85
2022/06/06 05:55:25;;;;;;;;;;;;;;;18.85;69.28;100706.16;4980629;28;19925;-83
2022/06/06 05:58:09;;;;;;;;;;;;;;;19.01;67.43;100705.66;4973055;28;20351;-82
2022/06/06 06:00:34;;;;;;;;;;;;;;;19.19;66.80;100730.31;4972309;28;19971;-84
2022/06/06 06:03:03;;;;;;;;;;;;;;;19.54;66.70;100751.75;4972793;28;20315;-84
2022/06/06 06:05:43;;;;;;;;;;;;;;;19.79;64.37;100770.13;4983031;28;19918;-84
2022/06/06 06:08:26;;;;;;;;;;;;;;;20.16;66.67;100776.56;4973199;28;20382;-83
2022/06/06 06:11:18;;;;;;;;;;;;;;;20.39;65.28;100767.78;4963178;28;20009;-84
2022/06/06 06:13:58;;;;;;;;;;;;;;;20.70;62.69;100782.47;4953620;28;20482;-84
2022/06/06 06:16:30;;;;;;;;;;;;;;;21.04;63.42;100778.28;4971025;28;19981;-84
2022/06/06 06:19:08;;;;;;;;;;;;;;;21.13;61.23;100770.63;4973637;28;19928;-87
2022/06/06 06:21:37;;;;;;;;;;;;;;;21.46;62.44;100770.25;4980348;28;19922;-86
2022/06/06 06:24:05;;;;;;;;;;;;;;;21.59;61.32;100761.06;4973698;28;19922;-85
2022/06/06 06:26:34;;;;;;;;;;;;;;;21.68;60.04;100746.00;4965812;28;20027;-88
2022/06/06 06:29:05;;;;;;;;;;;;;;;21.65;61.76;100762.84;4969759;28;19918;-84
2022/06/06 06:31:41;;;;;;;;;;;;;;;21.33;62.63;100775.03;4979314;28;19918;-85
2022/06/06 06:34:11;;;;;;;;;;;;;;;21.36;62.09;100785.53;4974674;28;19946;-87
2022/06/06 06:36:55;;;;;;;;;;;;;;;21.26;61.38;100770.50;4962649;28;19922;-86
2022/06/06 06:39:40;;;;;;;;;;;;;;;21.41;59.44;100764.66;4966154;28;19941;-86
2022/06/06 06:42:21;;;;;;;;;;;;;;;21.90;59.70;100759.97;4970189;28;19976;-85
2022/06/06 06:44:48;;;;;;;;;;;;;;;22.12;58.60;100757.53;4980577;28;20000;-87
2022/06/06 06:47:18;;;;;;;;;;;;;;;22.50;56.72;100755.44;4948105;28;20033;-86
2022/06/06 06:49:51;;;;;;;;;;;;;;;22.87;54.70;100750.53;4974433;28;20009;-86
2022/06/06 06:52:35;;;;;;;;;;;;;;;23.51;54.31;100756.03;4988257;28;20009;-85
2022/06/06 06:55:09;;;;;;;;;;;;;;;24.01;54.65;100746.25;5002418;28;19925;-85
2022/06/06 06:57:49;;;;;;;;;;;;;;;23.88;55.13;100736.44;4990156;28;19917;-88
2022/06/06 07:00:15;;;;;;;;;;;;;;;24.70;50.56;100747.94;4984977;28;19957;-83
2022/06/06 07:08:39;;;;;;;;;;;;;;;26.23;46.82;100749.72;4989334;28;19975;-88
2022/06/06 07:11:10;;;;;;;;;;;;;;;26.55;45.16;100745.31;4999313;28;19940;-88
2022/06/06 07:13:42;;;;;;;;;;;;;;;27.25;42.50;100748.75;4991773;28;19975;-88
2022/06/06 07:16:10;;;;;;;;;;;;;;;26.76;41.84;100747.09;4992781;28;19917;-88
2022/06/06 07:18:36;;;;;;;;;;;;;;;26.88;42.57;100756.00;4981013;28;19925;-89
2022/06/06 07:21:02;;;;;;;;;;;;;;;27.35;42.64;100754.31;4999625;28;19968;-92
2022/06/06 07:23:31;;;;;;;;;;;;;;;27.68;41.13;100752.19;4992165;28;19922;-87
2022/06/06 07:25:58;;;;;;;;;;;;;;;28.06;39.41;100752.81;4996093;28;19918;-86
2022/06/06 07:28:39;;;;;;;;;;;;;;;27.77;40.50;100756.91;4983173;28;19913;-89
2022/06/06 07:31:31;;;;;;;;;;;;;;;28.09;40.53;100766.09;5005312;28;19918;-87
2022/06/06 07:34:19;;;;;;;;;;;;;;;28.39;39.44;100777.13;4995672;28;19918;-88
2022/06/06 07:37:04;;;;;;;;;;;;;;;28.69;38.37;100781.03;5000445;28;20401;-88
2022/06/06 07:39:34;;;;;;;;;;;;;;;28.78;38.17;100787.63;4996859;28;20048;-88
2022/06/06 07:42:04;;;;;;;;;;;;;;;28.94;37.50;100790.34;4981493;28;20427;-89
2022/06/06 07:44:38;;;;;;;;;;;;;;;28.93;37.66;100788.72;5009412;28;19945;-86
2022/06/06 07:47:27;;;;;;;;;;;;;;;29.11;37.65;100785.38;5019876;28;19921;-89
2022/06/06 07:49:55;;;;;;;;;;;;;;;29.15;38.47;100793.94;4984662;28;19922;-89
2022/06/06 07:52:39;;;;;;;;;;;;;;;29.18;38.55;100785.91;4981552;28;19965;-88
2022/06/06 07:55:10;;;;;;;;;;;;;;;28.89;38.93;100782.06;5007547;28;19917;-88
2022/06/06 07:58:15;;;;;;;;;;;;;;;29.28;39.74;100787.78;4989541;28;19933;-87
2022/06/06 08:00:40;;;;;;;;;;;;;;;29.23;38.95;100799.72;4984211;28;19917;-88
2022/06/06 08:03:26;;;;;;;;;;;;;;;29.17;37.79;100803.63;4963187;28;19914;-87
2022/06/06 08:06:10;;;;;;;;;;;;;;;29.07;37.05;100811.94;5000162;28;19918;-87
2022/06/06 08:08:41;;;;;;;;;;;;;;;29.66;37.66;100813.94;4997145;28;19918;-88
2022/06/06 08:11:26;;;;;;;;;;;;;;;30.30;35.14;100797.50;5002177;28;19918;-89
2022/06/06 08:14:19;;;;;;;;;;;;;;;30.05;36.35;100793.75;4993215;28;19917;-88
2022/06/06 08:16:54;;;;;;;;;;;;;;;30.18;36.85;100797.00;4992246;28;19936;-88
2022/06/06 08:19:33;;;;;;;;;;;;;;;30.46;36.02;100796.25;4996483;28;19983;-89
2022/06/06 08:21:58;;;;;;;;;;;;;;;30.43;35.61;100805.13;5004834;28;19913;-88
2022/06/06 08:24:38;;;;;;;;;;;;;;;29.63;37.26;100808.94;4967966;28;20403;-85
2022/06/06 08:27:19;;;;;;;;;;;;;;;29.59;37.62;100815.34;4967007;28;19918;-88
2022/06/06 08:29:46;;;;;;;;;;;;;;;29.63;37.86;100817.25;4971227;28;20419;-91
2022/06/06 08:32:14;;;;;;;;;;;;;;;30.18;37.55;100808.94;4992717;28;19921;-89
2022/06/06 08:34:40;;;;;;;;;;;;;;;29.73;37.49;100804.50;4970307;28;19925;-86
2022/06/06 08:37:13;;;;;;;;;;;;;;;30.19;36.30;100798.66;5003119;28;19914;-94
2022/06/06 08:40:16;;;;;;;;;;;;;;;30.37;36.21;100805.47;4995968;28;19918;-85
2022/06/06 08:42:55;;;;;;;;;;;;;;;30.94;35.75;100797.47;4975230;28;20480;-84
2022/06/06 08:45:27;;;;;;;;;;;;;;;31.60;34.82;100788.34;5004070;28;19918;-86
2022/06/06 08:48:02;;;;;;;;;;;;;;;31.32;35.64;100799.22;5017735;28;20457;-87
2022/06/06 08:50:46;;;;;;;;;;;;;;;31.10;35.79;100796.19;4986232;28;19928;-87
2022/06/06 08:53:17;;;;;;;;;;;;;;;31.56;34.17;100790.06;5001269;28;19928;-85
2022/06/06 08:55:48;;;;;;;;;;;;;;;31.70;33.98;100796.56;4963113;28;19913;-86
2022/06/06 08:58:17;;;;;;;;;;;;;;;33.12;32.17;100793.66;5001741;28;19918;-83
2022/06/06 09:00:45;;;;;;;;;;;;;;;33.50;30.67;100793.41;4998740;28;20381;-86
2022/06/06 09:03:20;;;;;;;;;;;;;;;33.76;30.58;100797.31;4977743;28;20322;-88
2022/06/06 09:05:45;;;;;;;;;;;;;;;34.31;29.59;100784.31;4999712;28;19917;-84
2022/06/06 09:09:06;;;;;;;;;;;;;;;34.75;28.43;100788.22;5008817;28;19913;-90
2022/06/06 09:14:14;;;;;;;;;;;;;;;33.74;29.63;100782.03;5360221;22;19909;-93
2022/06/06 09:16:53;;;;;;;;;;;;;;;34.78;28.57;100782.00;5023707;23;19909;-93
2022/06/06 09:19:40;;;;;;;;;;;;;;;34.65;28.68;100790.16;5018251;28;19914;-89
2022/06/06 09:22:20;;;;;;;;;;;;;;;34.44;28.94;100777.81;5328872;23;19925;-91
2022/06/06 09:27:52;;;;;;;;;;;;;;;32.90;32.06;100799.91;5130904;23;19936;-89
2022/06/06 09:30:25;;;;;;;;;;;;;;;33.99;30.95;100800.13;5033638;28;19948;-92
2022/06/06 09:33:10;;;;;;;;;;;;;;;35.44;28.31;100782.88;5033633;28;19965;-91
2022/06/06 09:35:54;;;;;;;;;;;;;;;34.78;30.10;100782.00;5031958;28;19910;-94
2022/06/06 09:38:45;;;;;;;;;;;;;;;34.07;30.63;100785.44;5021016;28;19921;-92
2022/06/06 09:41:23;;;;;;;;;;;;;;;32.87;32.45;100784.63;5020210;28;20350;-89
2022/06/06 09:44:16;;;;;;;;;;;;;;;32.53;32.70;100773.88;5017504;28;20038;-92
2022/06/06 09:46:48;;;;;;;;;;;;;;;32.25;33.08;100773.75;5011132;28;19917;-91
2022/06/06 09:49:14;;;;;;;;;;;;;;;32.75;32.79;100778.75;5008009;28;19920;-88
2022/06/06 09:52:01;;;;;;;;;;;;;;;34.71;29.79;100770.47;5015362;28;19921;-87
2022/06/06 10:00:33;;;;;;;;;;;;;;;34.10;31.59;100744.97;5033920;28;19912;-90
2022/06/06 10:03:18;;;;;;;;;;;;;;;31.52;35.33;100747.34;5035309;28;19923;-89
2022/06/06 10:06:03;;;;;;;;;;;;;;;29.72;38.38;100759.34;5035179;28;19905;-94
2022/06/06 10:08:47;;;;;;;;;;;;;;;29.62;39.47;100751.09;5017400;28;19915;-91
2022/06/06 10:11:24;;;;;;;;;;;;;;;28.44;41.32;100758.91;5018830;28;19928;-88
2022/06/06 10:14:00;;;;;;;;;;;;;;;29.81;39.43;100759.59;5003226;28;19985;-89
2022/06/06 10:16:53;;;;;;;;;;;;;;;30.21;38.46;100749.28;5021725;28;20251;-90
2022/06/06 10:19:30;;;;;;;;;;;;;;;30.14;38.61;100755.16;5029730;28;19913;-89
2022/06/06 10:22:21;;;;;;;;;;;;;;;29.50;39.87;100769.97;4992019;28;19916;-94
2022/06/06 10:24:50;;;;;;;;;;;;;;;28.34;42.47;100770.78;5018854;28;20063;-94
2022/06/06 10:27:42;;;;;;;;;;;;;;;27.93;43.69;100777.13;5015288;28;19921;-92
2022/06/06 10:30:27;;;;;;;;;;;;;;;26.76;46.04;100776.59;5010433;28;19917;-92
2022/06/06 10:32:53;;;;;;;;;;;;;;;27.37;45.02;100768.69;4997648;28;19913;-90
2022/06/06 10:35:31;;;;;;;;;;;;;;;27.62;44.01;100776.19;5005538;28;20016;-90
2022/06/06 10:38:00;;;;;;;;;;;;;;;29.00;41.69;100779.00;5002112;28;19917;-88
2022/06/06 10:40:30;;;;;;;;;;;;;;;28.63;42.72;100771.06;5012974;28;19914;-91
2022/06/06 10:43:16;;;;;;;;;;;;;;;29.00;42.07;100767.09;5016483;28;19905;-89
2022/06/06 10:45:53;;;;;;;;;;;;;;;28.57;42.94;100769.44;5019759;28;19987;-88
2022/06/06 10:48:28;;;;;;;;;;;;;;;27.68;44.84;100768.78;5010588;28;20013;-90
2022/06/06 10:54:05;;;;;;;;;;;;;;;26.62;47.87;100763.28;5012516;28;19968;-88
2022/06/06 10:56:31;;;;;;;;;;;;;;;25.99;49.63;100765.78;5010567;28;19914;-90
2022/06/06 10:59:17;;;;;;;;;;;;;;;26.05;50.15;100758.38;5020754;28;19956;-88
2022/06/06 11:01:51;;;;;;;;;;;;;;;25.79;50.95;100760.03;5013647;28;20021;-89
2022/06/06 11:04:24;;;;;;;;;;;;;;;25.30;53.35;100774.63;5012553;28;19968;-87
2022/06/06 11:07:08;;;;;;;;;;;;;;;24.74;54.71;100760.09;4985219;28;19920;-89
2022/06/06 11:09:52;;;;;;;;;;;;;;;24.57;56.23;100771.94;5013167;28;19917;-86
2022/06/06 11:12:21;;;;;;;;;;;;;;;24.72;56.02;100767.75;5016548;28;19932;-93
2022/06/06 11:14:47;;;;;;;;;;;;;;;23.42;64.02;100770.38;5000884;28;20826;-91
2022/06/06 11:17:12;;;;;;;;;;;;;;;22.36;68.54;100775.91;4998004;28;19917;-87
2022/06/06 11:19:41;;;;;;;;;;;;;;;22.27;69.94;100780.94;4999369;28;19936;-90
2022/06/06 11:22:10;;;;;;;;;;;;;;;22.03;71.59;100780.84;5014210;28;19921;-94
2022/06/06 11:24:36;;;;;;;;;;;;;;;21.73;70.52;100782.72;5017769;28;19963;-93
2022/06/06 11:27:40;;;;;;;;;;;;;;;21.61;72.91;100785.44;5012203;28;20443;-93
2022/06/06 11:30:12;;;;;;;;;;;;;;;21.12;73.03;100782.66;5010482;28;19918;-94
2022/06/06 11:32:44;;;;;;;;;;;;;;;21.06;73.01;100802.69;5020518;28;19920;-92
2022/06/06 11:35:26;;;;;;;;;;;;;;;20.90;73.35;100804.09;5011631;28;19996;-92
2022/06/06 11:37:54;;;;;;;;;;;;;;;20.92;74.58;100793.78;5020287;28;19917;-94
2022/06/06 11:40:38;;;;;;;;;;;;;;;21.17;72.11;100792.91;5020354;28;20063;-92
2022/06/06 11:43:32;;;;;;;;;;;;;;;21.41;74.47;100794.72;5006052;28;19992;-90
2022/06/06 11:46:01;;;;;;;;;;;;;;;22.00;71.62;100797.72;5006820;28;19938;-90
2022/06/06 11:48:46;;;;;;;;;;;;;;;22.19;69.01;100792.16;5009942;28;19914;-95
2022/06/06 11:51:14;;;;;;;;;;;;;;;22.76;67.83;100787.03;5017213;28;19933;-92
2022/06/06 11:53:56;;;;;;;;;;;;;;;23.01;68.37;100780.47;5015610;28;19925;-94
2022/06/06 11:56:41;;;;;;;;;;;;;;;23.27;68.21;100769.00;5007232;28;19917;-90
2022/06/06 11:59:26;;;;;;;;;;;;;;;23.48;65.88;100763.91;5017774;28;19928;-91
2022/06/06 12:02:06;;;;;;;;;;;;;;;23.78;63.72;100759.03;5020439;28;19913;-89
2022/06/06 12:04:41;;;;;;;;;;;;;;;23.93;63.04;100763.16;4997069;28;20028;-88
2022/06/06 12:07:30;;;;;;;;;;;;;;;23.90;61.36;100771.88;5017519;28;19971;-93
2022/06/06 12:10:10;;;;;;;;;;;;;;;23.98;63.36;100774.22;5003188;28;19928;-91
2022/06/06 12:12:55;;;;;;;;;;;;;;;23.67;63.51;100765.41;5007111;28;19935;-90
2022/06/06 12:15:38;;;;;;;;;;;;;;;23.79;63.07;100768.94;5017006;28;19925;-87
2022/06/06 12:18:22;;;;;;;;;;;;;;;23.47;64.28;100768.56;5015331;28;19913;-85
2022/06/06 12:21:25;;;;;;;;;;;;;;;23.27;65.08;100779.13;5004258;28;19925;-87
2022/06/06 12:23:53;;;;;;;;;;;;;;;22.97;65.62;100788.34;4948306;29;19918;-88
2022/06/06 12:26:24;;;;;;;;;;;;;;;23.39;64.76;100782.69;5010664;28;19937;-85
2022/06/06 12:29:09;;;;;;;;;;;;;;;23.50;64.58;100783.72;5032854;28;19921;-87
2022/06/06 12:31:47;;;;;;;;;;;;;;;23.19;64.98;100777.59;5013185;28;20377;-89
2022/06/06 12:34:43;;;;;;;;;;;;;;;23.12;64.63;100779.63;5014429;28;20356;-88
2022/06/06 12:37:37;;;;;;;;;;;;;;;23.02;64.32;100780.25;4930454;28;19915;-88
2022/06/06 12:40:05;;;;;;;;;;;;;;;23.47;63.97;100775.97;4969572;28;20009;-87
2022/06/06 12:42:57;;;;;;;;;;;;;;;23.50;63.04;100783.72;5013904;28;19936;-90
2022/06/06 12:45:34;;;;;;;;;;;;;;;23.44;60.66;100781.97;4989387;28;19921;-84
2022/06/06 12:48:20;;;;;;;;;;;;;;;23.07;61.94;100774.03;5013561;28;20342;-85
2022/06/06 12:50:54;;;;;;;;;;;;;;;22.80;62.61;100760.81;4999831;28;19917;-82
2022/06/06 12:53:38;;;;;;;;;;;;;;;22.80;62.71;100763.53;5031083;28;19973;-84
2022/06/06 12:56:17;;;;;;;;;;;;;;;22.92;63.25;100758.91;5015077;28;19934;-87
2022/06/06 12:58:49;;;;;;;;;;;;;;;22.85;63.68;100766.41;5000731;28;20026;-92
2022/06/06 13:01:40;;;;;;;;;;;;;;;22.45;64.82;100758.06;4996827;28;19913;-86
2022/06/06 13:04:10;;;;;;;;;;;;;;;22.42;64.21;100764.03;5012992;28;19913;-87
2022/06/06 13:06:39;;;;;;;;;;;;;;;22.67;64.02;100764.63;5011720;28;20012;-87
2022/06/06 13:09:11;;;;;;;;;;;;;;;22.74;62.77;100770.00;5012905;28;19922;-86
2022/06/06 13:11:56;;;;;;;;;;;;;;;22.66;63.54;100767.59;5011610;28;20313;-87
2022/06/06 13:14:27;;;;;;;;;;;;;;;22.59;63.43;100761.41;4994774;28;19917;-90
2022/06/06 13:16:58;;;;;;;;;;;;;;;22.09;65.58;100763.47;5013611;28;20000;-89
2022/06/06 13:19:36;;;;;;;;;;;;;;;21.73;66.45;100763.59;5011836;28;19979;-88
2022/06/06 13:22:10;;;;;;;;;;;;;;;21.49;67.05;100763.47;5011859;28;19909;-86
2022/06/06 13:24:54;;;;;;;;;;;;;;;21.49;67.39;100763.47;5013840;28;20016;-87
2022/06/06 13:27:22;;;;;;;;;;;;;;;21.67;67.28;100776.31;5012509;28;19918;-86
2022/06/06 13:29:47;;;;;;;;;;;;;;;21.94;66.62;100776.78;5000092;28;19975;-88
2022/06/06 13:32:18;;;;;;;;;;;;;;;22.06;65.66;100783.09;4996090;28;19925;-90
2022/06/06 13:35:03;;;;;;;;;;;;;;;22.10;64.65;100776.09;5014352;28;19917;-88
2022/06/06 13:37:35;;;;;;;;;;;;;;;22.22;64.68;100778.03;5008571;28;19921;-88
2022/06/06 13:40:04;;;;;;;;;;;;;;;22.41;64.33;100774.16;5005469;28;19917;-89
2022/06/06 13:42:35;;;;;;;;;;;;;;;22.63;63.05;100768.09;4997549;28;19914;-85